sensor_id;sensor_type;location;lat;lon;timestamp;temperature;humidity
17092;DHT22;8661;45.700;4.880;2023-03-01T00:02:02;2.80;95.30
17092;DHT22;8661;45.700;4.880;2023-03-01T00:04:30;2.80;95.30
17092;DHT22;8661;45.700;4.880;2023-03-01T00:06:58;2.80;95.40
17092;DHT22;8661;45.700;4.880;2023-03-01T00:09:25;2.60;95.40
17092;DHT22;8661;45.700;4.880;2023-03-01T00:11:52;2.60;95.50
17092;DHT22;8661;45.700;4.880;2023-03-01T00:14:19;2.60;95.60
17092;DHT22;8661;45.700;4.880;2023-03-01T00:16:46;2.70;95.80
17092;DHT22;8661;45.700;4.880;2023-03-01T00:19:16;2.70;95.50
17092;DHT22;8661;45.700;4.880;2023-03-01T00:21:43;2.60;95.40
17092;DHT22;8661;45.700;4.880;2023-03-01T00:24:12;2.60;96.00
17092;DHT22;8661;45.700;4.880;2023-03-01T00:26:38;2.60;95.60
17092;DHT22;8661;45.700;4.880;2023-03-01T00:29:06;2.50;95.70
17092;DHT22;8661;45.700;4.880;2023-03-01T00:31:33;2.60;95.70
17092;DHT22;8661;45.700;4.880;2023-03-01T00:34:02;2.50;95.80
17092;DHT22;8661;45.700;4.880;2023-03-01T00:36:31;2.50;95.80
17092;DHT22;8661;45.700;4.880;2023-03-01T00:38:58;2.50;95.80
17092;DHT22;8661;45.700;4.880;2023-03-01T00:41:27;2.50;95.90
17092;DHT22;8661;45.700;4.880;2023-03-01T00:43:54;2.40;96.00
17092;DHT22;8661;45.700;4.880;2023-03-01T00:46:23;2.50;95.90
17092;DHT22;8661;45.700;4.880;2023-03-01T00:48:50;2.50;95.90
17092;DHT22;8661;45.700;4.880;2023-03-01T00:51:19;2.40;95.80
17092;DHT22;8661;45.700;4.880;2023-03-01T00:53:47;2.40;95.90
17092;DHT22;8661;45.700;4.880;2023-03-01T00:56:14;2.30;96.00
17092;DHT22;8661;45.700;4.880;2023-03-01T00:58:43;2.30;96.10
17092;DHT22;8661;45.700;4.880;2023-03-01T01:01:11;2.20;96.20
17092;DHT22;8661;45.700;4.880;2023-03-01T01:03:45;2.20;96.30
17092;DHT22;8661;45.700;4.880;2023-03-01T01:06:16;2.10;96.20
17092;DHT22;8661;45.700;4.880;2023-03-01T01:08:44;2.00;96.40
17092;DHT22;8661;45.700;4.880;2023-03-01T01:11:11;1.90;96.50
17092;DHT22;8661;45.700;4.880;2023-03-01T01:13:38;1.80;96.80
17092;DHT22;8661;45.700;4.880;2023-03-01T01:16:07;1.80;96.80
17092;DHT22;8661;45.700;4.880;2023-03-01T01:18:34;1.70;96.90
17092;DHT22;8661;45.700;4.880;2023-03-01T01:21:06;1.70;97.10
17092;DHT22;8661;45.700;4.880;2023-03-01T01:23:34;1.60;97.30
17092;DHT22;8661;45.700;4.880;2023-03-01T01:26:05;1.60;97.40
17092;DHT22;8661;45.700;4.880;2023-03-01T01:28:32;1.60;97.30
17092;DHT22;8661;45.700;4.880;2023-03-01T01:30:59;1.50;97.50
17092;DHT22;8661;45.700;4.880;2023-03-01T01:33:29;1.40;97.40
17092;DHT22;8661;45.700;4.880;2023-03-01T01:35:56;1.50;97.60
17092;DHT22;8661;45.700;4.880;2023-03-01T01:38:23;1.50;97.60
17092;DHT22;8661;45.700;4.880;2023-03-01T01:40:51;1.40;97.70
17092;DHT22;8661;45.700;4.880;2023-03-01T01:43:20;1.40;97.80
17092;DHT22;8661;45.700;4.880;2023-03-01T01:45:48;1.30;98.00
17092;DHT22;8661;45.700;4.880;2023-03-01T01:48:19;1.30;98.00
17092;DHT22;8661;45.700;4.880;2023-03-01T01:50:52;1.30;98.10
17092;DHT22;8661;45.700;4.880;2023-03-01T01:53:21;1.30;98.20
17092;DHT22;8661;45.700;4.880;2023-03-01T01:55:52;1.20;98.20
17092;DHT22;8661;45.700;4.880;2023-03-01T01:58:21;1.20;98.40
17092;DHT22;8661;45.700;4.880;2023-03-01T02:00:48;1.20;98.50
17092;DHT22;8661;45.700;4.880;2023-03-01T02:03:20;1.20;98.40
17092;DHT22;8661;45.700;4.880;2023-03-01T02:05:56;1.20;98.80
17092;DHT22;8661;45.700;4.880;2023-03-01T02:08:26;1.20;98.70
17092;DHT22;8661;45.700;4.880;2023-03-01T02:10:54;1.20;98.80
17092;DHT22;8661;45.700;4.880;2023-03-01T02:13:22;1.10;98.90
17092;DHT22;8661;45.700;4.880;2023-03-01T02:15:49;1.20;98.90
17092;DHT22;8661;45.700;4.880;2023-03-01T02:18:18;1.30;98.80
17092;DHT22;8661;45.700;4.880;2023-03-01T02:20:56;1.30;98.80
17092;DHT22;8661;45.700;4.880;2023-03-01T02:23:28;1.30;98.80
17092;DHT22;8661;45.700;4.880;2023-03-01T02:26:00;1.40;98.90
17092;DHT22;8661;45.700;4.880;2023-03-01T02:28:34;1.50;98.80
17092;DHT22;8661;45.700;4.880;2023-03-01T02:31:02;1.50;98.80
17092;DHT22;8661;45.700;4.880;2023-03-01T02:33:47;1.50;98.90
17092;DHT22;8661;45.700;4.880;2023-03-01T02:36:17;1.50;98.80
17092;DHT22;8661;45.700;4.880;2023-03-01T02:38:45;1.50;98.70
17092;DHT22;8661;45.700;4.880;2023-03-01T02:41:15;1.50;98.70
17092;DHT22;8661;45.700;4.880;2023-03-01T02:43:45;1.50;98.90
17092;DHT22;8661;45.700;4.880;2023-03-01T02:46:16;1.50;98.90
17092;DHT22;8661;45.700;4.880;2023-03-01T02:48:45;1.60;98.80
17092;DHT22;8661;45.700;4.880;2023-03-01T02:51:32;1.60;98.90
17092;DHT22;8661;45.700;4.880;2023-03-01T02:54:10;1.60;99.40
17092;DHT22;8661;45.700;4.880;2023-03-01T02:56:40;1.60;98.90
17092;DHT22;8661;45.700;4.880;2023-03-01T02:59:09;1.60;98.90
17092;DHT22;8661;45.700;4.880;2023-03-01T03:01:37;1.60;98.90
17092;DHT22;8661;45.700;4.880;2023-03-01T03:04:04;1.70;98.80
17092;DHT22;8661;45.700;4.880;2023-03-01T03:06:32;1.70;98.80
17092;DHT22;8661;45.700;4.880;2023-03-01T03:08:59;1.70;98.90
17092;DHT22;8661;45.700;4.880;2023-03-01T03:11:26;1.70;98.90
17092;DHT22;8661;45.700;4.880;2023-03-01T03:13:53;1.70;99.00
17092;DHT22;8661;45.700;4.880;2023-03-01T03:16:22;1.70;99.00
17092;DHT22;8661;45.700;4.880;2023-03-01T03:18:50;1.60;99.10
17092;DHT22;8661;45.700;4.880;2023-03-01T03:21:17;1.60;99.10
17092;DHT22;8661;45.700;4.880;2023-03-01T03:23:44;1.60;99.30
17092;DHT22;8661;45.700;4.880;2023-03-01T03:26:10;1.60;99.20
17092;DHT22;8661;45.700;4.880;2023-03-01T03:28:40;1.60;99.30
17092;DHT22;8661;45.700;4.880;2023-03-01T03:31:08;1.50;99.40
17092;DHT22;8661;45.700;4.880;2023-03-01T03:33:36;1.40;99.50
17092;DHT22;8661;45.700;4.880;2023-03-01T03:36:04;1.30;99.80
17092;DHT22;8661;45.700;4.880;2023-03-01T03:38:31;1.20;99.90
17092;DHT22;8661;45.700;4.880;2023-03-01T03:41:03;1.20;99.90
17092;DHT22;8661;45.700;4.880;2023-03-01T03:43:32;1.20;99.90
17092;DHT22;8661;45.700;4.880;2023-03-01T03:45:59;1.10;99.90
17092;DHT22;8661;45.700;4.880;2023-03-01T03:48:27;1.00;99.90
17092;DHT22;8661;45.700;4.880;2023-03-01T03:50:56;0.90;99.90
17092;DHT22;8661;45.700;4.880;2023-03-01T03:53:24;0.80;99.90
17092;DHT22;8661;45.700;4.880;2023-03-01T03:55:52;0.80;99.90
17092;DHT22;8661;45.700;4.880;2023-03-01T03:58:22;0.70;99.90
17092;DHT22;8661;45.700;4.880;2023-03-01T04:00:51;0.70;99.90
17092;DHT22;8661;45.700;4.880;2023-03-01T04:03:19;0.70;99.90
17092;DHT22;8661;45.700;4.880;2023-03-01T04:05:47;0.60;99.90
17092;DHT22;8661;45.700;4.880;2023-03-01T04:08:18;0.60;99.90
17092;DHT22;8661;45.700;4.880;2023-03-01T04:10:47;0.50;99.90
17092;DHT22;8661;45.700;4.880;2023-03-01T04:13:16;0.50;99.90
17092;DHT22;8661;45.700;4.880;2023-03-01T04:15:45;0.50;99.90
17092;DHT22;8661;45.700;4.880;2023-03-01T04:18:13;0.40;99.90
17092;DHT22;8661;45.700;4.880;2023-03-01T04:20:41;0.50;99.90
17092;DHT22;8661;45.700;4.880;2023-03-01T04:23:11;0.30;99.90
17092;DHT22;8661;45.700;4.880;2023-03-01T04:25:42;0.30;99.90
17092;DHT22;8661;45.700;4.880;2023-03-01T04:28:09;0.30;99.90
17092;DHT22;8661;45.700;4.880;2023-03-01T04:30:37;0.20;99.90
17092;DHT22;8661;45.700;4.880;2023-03-01T04:33:05;0.10;99.90
17092;DHT22;8661;45.700;4.880;2023-03-01T04:35:34;0.10;99.90
17092;DHT22;8661;45.700;4.880;2023-03-01T04:38:01;0.00;99.90
17092;DHT22;8661;45.700;4.880;2023-03-01T04:40:29;0.10;99.90
17092;DHT22;8661;45.700;4.880;2023-03-01T04:42:57;0.10;99.90
17092;DHT22;8661;45.700;4.880;2023-03-01T04:45:26;0.00;99.90
17092;DHT22;8661;45.700;4.880;2023-03-01T04:47:53;0.00;99.90
17092;DHT22;8661;45.700;4.880;2023-03-01T04:50:20;0.00;99.90
17092;DHT22;8661;45.700;4.880;2023-03-01T04:52:49;0.00;99.90
17092;DHT22;8661;45.700;4.880;2023-03-01T04:55:16;-0.10;99.90
17092;DHT22;8661;45.700;4.880;2023-03-01T04:57:43;-0.10;99.90
17092;DHT22;8661;45.700;4.880;2023-03-01T05:00:13;-0.10;99.90
17092;DHT22;8661;45.700;4.880;2023-03-01T05:02:51;-0.10;99.90
17092;DHT22;8661;45.700;4.880;2023-03-01T05:05:27;-0.10;99.90
17092;DHT22;8661;45.700;4.880;2023-03-01T05:07:55;0.00;99.90
17092;DHT22;8661;45.700;4.880;2023-03-01T05:10:22;-0.10;99.90
17092;DHT22;8661;45.700;4.880;2023-03-01T05:12:49;0.00;99.90
17092;DHT22;8661;45.700;4.880;2023-03-01T05:15:19;0.00;99.90
17092;DHT22;8661;45.700;4.880;2023-03-01T05:17:47;0.00;99.90
17092;DHT22;8661;45.700;4.880;2023-03-01T05:20:14;0.10;99.90
17092;DHT22;8661;45.700;4.880;2023-03-01T05:22:41;0.10;99.90
17092;DHT22;8661;45.700;4.880;2023-03-01T05:25:08;0.10;99.90
17092;DHT22;8661;45.700;4.880;2023-03-01T05:27:36;0.10;99.90
17092;DHT22;8661;45.700;4.880;2023-03-01T05:30:03;0.10;99.90
17092;DHT22;8661;45.700;4.880;2023-03-01T05:32:41;0.10;99.90
17092;DHT22;8661;45.700;4.880;2023-03-01T05:35:10;0.20;99.90
17092;DHT22;8661;45.700;4.880;2023-03-01T05:37:40;0.20;99.90
17092;DHT22;8661;45.700;4.880;2023-03-01T05:40:09;0.20;99.90
17092;DHT22;8661;45.700;4.880;2023-03-01T05:42:44;0.20;99.90
17092;DHT22;8661;45.700;4.880;2023-03-01T05:45:12;0.20;99.90
17092;DHT22;8661;45.700;4.880;2023-03-01T05:47:42;0.20;99.90
17092;DHT22;8661;45.700;4.880;2023-03-01T05:50:14;0.30;99.90
17092;DHT22;8661;45.700;4.880;2023-03-01T05:52:45;0.30;99.90
17092;DHT22;8661;45.700;4.880;2023-03-01T05:55:12;0.40;99.90
17092;DHT22;8661;45.700;4.880;2023-03-01T05:57:39;0.40;99.90
17092;DHT22;8661;45.700;4.880;2023-03-01T06:00:10;0.50;99.90
17092;DHT22;8661;45.700;4.880;2023-03-01T06:02:37;0.60;99.90
17092;DHT22;8661;45.700;4.880;2023-03-01T06:05:08;0.60;99.90
17092;DHT22;8661;45.700;4.880;2023-03-01T06:07:35;0.70;99.90
17092;DHT22;8661;45.700;4.880;2023-03-01T06:10:03;0.60;99.90
17092;DHT22;8661;45.700;4.880;2023-03-01T06:12:31;0.70;99.90
17092;DHT22;8661;45.700;4.880;2023-03-01T06:14:58;0.70;99.90
17092;DHT22;8661;45.700;4.880;2023-03-01T06:17:25;0.60;99.90
17092;DHT22;8661;45.700;4.880;2023-03-01T06:19:52;0.70;99.90
17092;DHT22;8661;45.700;4.880;2023-03-01T06:22:20;0.70;99.90
17092;DHT22;8661;45.700;4.880;2023-03-01T06:24:47;0.70;99.90
17092;DHT22;8661;45.700;4.880;2023-03-01T06:27:14;0.80;99.90
17092;DHT22;8661;45.700;4.880;2023-03-01T06:29:41;0.80;99.90
17092;DHT22;8661;45.700;4.880;2023-03-01T06:32:08;0.80;99.90
17092;DHT22;8661;45.700;4.880;2023-03-01T06:34:35;0.90;99.90
17092;DHT22;8661;45.700;4.880;2023-03-01T06:37:02;0.90;99.90
17092;DHT22;8661;45.700;4.880;2023-03-01T06:39:32;1.00;99.90
17092;DHT22;8661;45.700;4.880;2023-03-01T06:41:59;1.00;99.90
17092;DHT22;8661;45.700;4.880;2023-03-01T06:44:26;1.10;99.90
17092;DHT22;8661;45.700;4.880;2023-03-01T06:46:54;1.10;99.90
17092;DHT22;8661;45.700;4.880;2023-03-01T06:49:21;1.10;99.90
17092;DHT22;8661;45.700;4.880;2023-03-01T06:51:48;1.10;99.90
17092;DHT22;8661;45.700;4.880;2023-03-01T06:54:15;1.10;99.90
17092;DHT22;8661;45.700;4.880;2023-03-01T06:56:46;1.20;99.90
17092;DHT22;8661;45.700;4.880;2023-03-01T06:59:13;1.30;99.90
17092;DHT22;8661;45.700;4.880;2023-03-01T07:01:40;1.30;99.90
17092;DHT22;8661;45.700;4.880;2023-03-01T07:04:07;1.40;99.90
17092;DHT22;8661;45.700;4.880;2023-03-01T07:06:34;1.50;99.90
17092;DHT22;8661;45.700;4.880;2023-03-01T07:09:01;1.60;99.90
17092;DHT22;8661;45.700;4.880;2023-03-01T07:11:31;1.70;99.90
17092;DHT22;8661;45.700;4.880;2023-03-01T07:14:00;1.70;99.90
17092;DHT22;8661;45.700;4.880;2023-03-01T07:16:27;1.70;99.90
17092;DHT22;8661;45.700;4.880;2023-03-01T07:18:54;1.80;99.90
17092;DHT22;8661;45.700;4.880;2023-03-01T07:21:21;1.80;99.90
17092;DHT22;8661;45.700;4.880;2023-03-01T07:23:48;1.80;99.90
17092;DHT22;8661;45.700;4.880;2023-03-01T07:26:15;1.80;99.90
17092;DHT22;8661;45.700;4.880;2023-03-01T07:28:42;1.90;99.90
17092;DHT22;8661;45.700;4.880;2023-03-01T07:31:10;1.90;99.90
17092;DHT22;8661;45.700;4.880;2023-03-01T07:33:37;1.90;99.90
17092;DHT22;8661;45.700;4.880;2023-03-01T07:36:05;1.80;99.90
17092;DHT22;8661;45.700;4.880;2023-03-01T07:38:32;1.90;99.90
17092;DHT22;8661;45.700;4.880;2023-03-01T07:41:01;1.90;99.90
17092;DHT22;8661;45.700;4.880;2023-03-01T07:43:29;1.90;99.90
17092;DHT22;8661;45.700;4.880;2023-03-01T07:45:58;2.00;99.90
17092;DHT22;8661;45.700;4.880;2023-03-01T07:48:27;2.20;99.90
17092;DHT22;8661;45.700;4.880;2023-03-01T07:50:54;2.30;99.90
17092;DHT22;8661;45.700;4.880;2023-03-01T07:53:21;2.40;99.90
17092;DHT22;8661;45.700;4.880;2023-03-01T07:55:48;2.40;99.90
17092;DHT22;8661;45.700;4.880;2023-03-01T07:58:15;2.50;99.90
17092;DHT22;8661;45.700;4.880;2023-03-01T08:00:41;2.60;99.90
17092;DHT22;8661;45.700;4.880;2023-03-01T08:03:08;2.70;99.90
17092;DHT22;8661;45.700;4.880;2023-03-01T08:05:37;2.80;99.90
17092;DHT22;8661;45.700;4.880;2023-03-01T08:08:04;2.90;99.90
17092;DHT22;8661;45.700;4.880;2023-03-01T08:10:31;3.00;99.90
17092;DHT22;8661;45.700;4.880;2023-03-01T08:12:58;3.10;99.90
17092;DHT22;8661;45.700;4.880;2023-03-01T08:15:25;3.10;99.90
17092;DHT22;8661;45.700;4.880;2023-03-01T08:17:52;3.20;99.90
17092;DHT22;8661;45.700;4.880;2023-03-01T08:20:19;3.20;99.90
17092;DHT22;8661;45.700;4.880;2023-03-01T08:22:47;3.50;99.90
17092;DHT22;8661;45.700;4.880;2023-03-01T08:25:14;3.60;99.90
17092;DHT22;8661;45.700;4.880;2023-03-01T08:27:41;3.50;99.90
17092;DHT22;8661;45.700;4.880;2023-03-01T08:30:09;3.40;99.90
17092;DHT22;8661;45.700;4.880;2023-03-01T08:32:37;3.40;99.90
17092;DHT22;8661;45.700;4.880;2023-03-01T08:35:04;3.50;99.90
17092;DHT22;8661;45.700;4.880;2023-03-01T08:37:31;3.60;99.90
17092;DHT22;8661;45.700;4.880;2023-03-01T08:40:00;3.70;99.90
17092;DHT22;8661;45.700;4.880;2023-03-01T08:42:29;3.90;99.90
17092;DHT22;8661;45.700;4.880;2023-03-01T08:44:55;3.90;99.90
17092;DHT22;8661;45.700;4.880;2023-03-01T08:47:22;4.30;99.90
17092;DHT22;8661;45.700;4.880;2023-03-01T08:49:50;4.60;99.90
17092;DHT22;8661;45.700;4.880;2023-03-01T08:52:17;4.80;99.90
17092;DHT22;8661;45.700;4.880;2023-03-01T08:54:44;5.00;99.60
17092;DHT22;8661;45.700;4.880;2023-03-01T08:57:12;5.00;98.90
17092;DHT22;8661;45.700;4.880;2023-03-01T08:59:39;4.80;98.30
17092;DHT22;8661;45.700;4.880;2023-03-01T09:02:15;4.80;98.70
17092;DHT22;8661;45.700;4.880;2023-03-01T09:04:42;4.70;98.30
17092;DHT22;8661;45.700;4.880;2023-03-01T09:07:10;4.30;98.60
17092;DHT22;8661;45.700;4.880;2023-03-01T09:09:37;4.30;98.70
17092;DHT22;8661;45.700;4.880;2023-03-01T09:12:05;4.40;98.80
17092;DHT22;8661;45.700;4.880;2023-03-01T09:14:33;4.60;98.60
17092;DHT22;8661;45.700;4.880;2023-03-01T09:17:02;4.70;98.70
17092;DHT22;8661;45.700;4.880;2023-03-01T09:19:30;4.80;98.40
17092;DHT22;8661;45.700;4.880;2023-03-01T09:21:57;4.80;97.80
17092;DHT22;8661;45.700;4.880;2023-03-01T09:24:24;4.90;98.20
17092;DHT22;8661;45.700;4.880;2023-03-01T09:26:54;4.90;97.90
17092;DHT22;8661;45.700;4.880;2023-03-01T09:29:21;5.00;97.60
17092;DHT22;8661;45.700;4.880;2023-03-01T09:31:49;5.00;97.60
17092;DHT22;8661;45.700;4.880;2023-03-01T09:34:16;5.10;97.20
17092;DHT22;8661;45.700;4.880;2023-03-01T09:36:48;5.20;97.20
17092;DHT22;8661;45.700;4.880;2023-03-01T09:39:15;5.30;97.10
17092;DHT22;8661;45.700;4.880;2023-03-01T09:41:46;5.40;97.20
17092;DHT22;8661;45.700;4.880;2023-03-01T09:44:25;5.40;96.80
17092;DHT22;8661;45.700;4.880;2023-03-01T09:46:56;5.30;96.20
17092;DHT22;8661;45.700;4.880;2023-03-01T09:49:25;5.30;96.70
17092;DHT22;8661;45.700;4.880;2023-03-01T09:51:59;5.20;96.40
17092;DHT22;8661;45.700;4.880;2023-03-01T09:54:27;5.20;97.10
17092;DHT22;8661;45.700;4.880;2023-03-01T09:57:03;5.20;96.80
17092;DHT22;8661;45.700;4.880;2023-03-01T09:59:37;5.00;97.00
17092;DHT22;8661;45.700;4.880;2023-03-01T10:02:21;5.20;96.70
17092;DHT22;8661;45.700;4.880;2023-03-01T10:04:49;5.40;97.10
17092;DHT22;8661;45.700;4.880;2023-03-01T10:07:25;5.40;96.60
17092;DHT22;8661;45.700;4.880;2023-03-01T10:09:53;5.40;96.50
17092;DHT22;8661;45.700;4.880;2023-03-01T10:12:24;5.60;96.20
17092;DHT22;8661;45.700;4.880;2023-03-01T10:14:58;5.70;95.90
17092;DHT22;8661;45.700;4.880;2023-03-01T10:17:33;5.70;95.60
17092;DHT22;8661;45.700;4.880;2023-03-01T10:20:18;5.70;95.40
17092;DHT22;8661;45.700;4.880;2023-03-01T10:22:45;5.70;95.40
17092;DHT22;8661;45.700;4.880;2023-03-01T10:25:17;5.80;95.30
17092;DHT22;8661;45.700;4.880;2023-03-01T10:27:51;5.90;95.30
17092;DHT22;8661;45.700;4.880;2023-03-01T10:30:21;6.20;95.30
17092;DHT22;8661;45.700;4.880;2023-03-01T10:32:51;6.30;95.00
17092;DHT22;8661;45.700;4.880;2023-03-01T10:35:21;6.40;94.70
17092;DHT22;8661;45.700;4.880;2023-03-01T10:38:03;6.40;94.60
17092;DHT22;8661;45.700;4.880;2023-03-01T10:40:30;6.70;94.40
17092;DHT22;8661;45.700;4.880;2023-03-01T10:42:58;6.60;94.20
17092;DHT22;8661;45.700;4.880;2023-03-01T10:45:35;6.30;94.40
17092;DHT22;8661;45.700;4.880;2023-03-01T10:48:13;6.00;94.60
17092;DHT22;8661;45.700;4.880;2023-03-01T10:50:40;6.10;94.90
17092;DHT22;8661;45.700;4.880;2023-03-01T10:53:21;6.40;94.60
17092;DHT22;8661;45.700;4.880;2023-03-01T10:55:57;6.60;94.20
17092;DHT22;8661;45.700;4.880;2023-03-01T10:58:25;6.80;93.80
17092;DHT22;8661;45.700;4.880;2023-03-01T11:00:53;6.80;93.60
17092;DHT22;8661;45.700;4.880;2023-03-01T11:03:27;6.90;93.20
17092;DHT22;8661;45.700;4.880;2023-03-01T11:05:58;7.10;93.10
17092;DHT22;8661;45.700;4.880;2023-03-01T11:08:46;7.50;93.10
17092;DHT22;8661;45.700;4.880;2023-03-01T11:11:34;7.90;92.50
17092;DHT22;8661;45.700;4.880;2023-03-01T11:14:06;8.00;91.60
17092;DHT22;8661;45.700;4.880;2023-03-01T11:16:35;8.10;91.80
17092;DHT22;8661;45.700;4.880;2023-03-01T11:19:21;8.50;91.80
17092;DHT22;8661;45.700;4.880;2023-03-01T11:21:56;8.80;90.90
17092;DHT22;8661;45.700;4.880;2023-03-01T11:24:30;9.10;90.50
17092;DHT22;8661;45.700;4.880;2023-03-01T11:27:01;9.40;90.10
17092;DHT22;8661;45.700;4.880;2023-03-01T11:29:33;9.40;89.10
17092;DHT22;8661;45.700;4.880;2023-03-01T11:32:05;9.40;89.10
17092;DHT22;8661;45.700;4.880;2023-03-01T11:34:43;9.60;88.30
17092;DHT22;8661;45.700;4.880;2023-03-01T11:37:21;9.60;88.30
17092;DHT22;8661;45.700;4.880;2023-03-01T11:39:57;10.00;87.30
17092;DHT22;8661;45.700;4.880;2023-03-01T11:42:31;10.60;86.70
17092;DHT22;8661;45.700;4.880;2023-03-01T11:45:08;11.00;85.00
17092;DHT22;8661;45.700;4.880;2023-03-01T11:47:49;11.10;83.50
17092;DHT22;8661;45.700;4.880;2023-03-01T11:50:28;11.20;82.70
17092;DHT22;8661;45.700;4.880;2023-03-01T11:53:11;11.40;83.20
17092;DHT22;8661;45.700;4.880;2023-03-01T11:55:55;11.30;83.50
17092;DHT22;8661;45.700;4.880;2023-03-01T11:58:42;11.50;81.70
17092;DHT22;8661;45.700;4.880;2023-03-01T12:01:25;11.30;82.20
17092;DHT22;8661;45.700;4.880;2023-03-01T12:04:17;11.50;81.50
17092;DHT22;8661;45.700;4.880;2023-03-01T12:06:55;11.50;81.90
17092;DHT22;8661;45.700;4.880;2023-03-01T12:09:52;11.70;80.40
17092;DHT22;8661;45.700;4.880;2023-03-01T12:12:39;11.90;79.50
17092;DHT22;8661;45.700;4.880;2023-03-01T12:15:34;11.80;79.50
17092;DHT22;8661;45.700;4.880;2023-03-01T12:18:18;11.80;79.90
17092;DHT22;8661;45.700;4.880;2023-03-01T12:20:56;11.60;79.50
17092;DHT22;8661;45.700;4.880;2023-03-01T12:23:40;11.70;80.20
17092;DHT22;8661;45.700;4.880;2023-03-01T12:26:18;11.30;80.00
17092;DHT22;8661;45.700;4.880;2023-03-01T12:32:15;11.10;80.40
17092;DHT22;8661;45.700;4.880;2023-03-01T12:35:11;11.00;80.70
17092;DHT22;8661;45.700;4.880;2023-03-01T12:37:56;10.90;80.30
17092;DHT22;8661;45.700;4.880;2023-03-01T12:40:54;10.70;81.60
17092;DHT22;8661;45.700;4.880;2023-03-01T12:43:36;10.60;82.30
17092;DHT22;8661;45.700;4.880;2023-03-01T12:46:18;10.70;82.80
17092;DHT22;8661;45.700;4.880;2023-03-01T12:48:54;10.60;82.00
17092;DHT22;8661;45.700;4.880;2023-03-01T12:51:24;10.60;82.00
17092;DHT22;8661;45.700;4.880;2023-03-01T12:53:54;10.50;81.80
17092;DHT22;8661;45.700;4.880;2023-03-01T12:56:26;10.40;82.20
17092;DHT22;8661;45.700;4.880;2023-03-01T12:59:01;10.30;82.80
17092;DHT22;8661;45.700;4.880;2023-03-01T13:01:36;10.20;82.80
17092;DHT22;8661;45.700;4.880;2023-03-01T13:04:15;10.10;82.70
17092;DHT22;8661;45.700;4.880;2023-03-01T13:06:54;10.00;82.50
17092;DHT22;8661;45.700;4.880;2023-03-01T13:09:27;9.80;82.80
17092;DHT22;8661;45.700;4.880;2023-03-01T13:11:58;9.60;83.60
17092;DHT22;8661;45.700;4.880;2023-03-01T13:14:46;9.50;84.70
17092;DHT22;8661;45.700;4.880;2023-03-01T13:17:33;9.50;84.70
17092;DHT22;8661;45.700;4.880;2023-03-01T13:20:13;9.20;85.90
17092;DHT22;8661;45.700;4.880;2023-03-01T13:22:41;9.10;85.70
17092;DHT22;8661;45.700;4.880;2023-03-01T13:25:16;8.60;86.20
17092;DHT22;8661;45.700;4.880;2023-03-01T13:27:46;8.40;87.70
17092;DHT22;8661;45.700;4.880;2023-03-01T13:30:41;8.40;87.90
17092;DHT22;8661;45.700;4.880;2023-03-01T13:36:47;8.80;88.20
17092;DHT22;8661;45.700;4.880;2023-03-01T13:39:30;8.90;86.60
17092;DHT22;8661;45.700;4.880;2023-03-01T13:42:01;9.00;87.20
17092;DHT22;8661;45.700;4.880;2023-03-01T13:44:33;9.00;87.10
17092;DHT22;8661;45.700;4.880;2023-03-01T13:47:12;8.60;87.10
17092;DHT22;8661;45.700;4.880;2023-03-01T13:49:44;8.50;87.90
17092;DHT22;8661;45.700;4.880;2023-03-01T13:52:34;8.70;88.00
17092;DHT22;8661;45.700;4.880;2023-03-01T13:55:02;8.80;88.00
17092;DHT22;8661;45.700;4.880;2023-03-01T13:57:33;8.70;87.10
17092;DHT22;8661;45.700;4.880;2023-03-01T14:00:03;8.70;87.70
17092;DHT22;8661;45.700;4.880;2023-03-01T14:02:31;8.70;88.00
17092;DHT22;8661;45.700;4.880;2023-03-01T14:05:00;8.60;87.70
17092;DHT22;8661;45.700;4.880;2023-03-01T14:07:28;8.60;88.20
17092;DHT22;8661;45.700;4.880;2023-03-01T14:09:58;8.50;88.80
17092;DHT22;8661;45.700;4.880;2023-03-01T14:12:37;8.50;89.20
17092;DHT22;8661;45.700;4.880;2023-03-01T14:15:15;8.50;89.50
17092;DHT22;8661;45.700;4.880;2023-03-01T14:17:52;8.40;89.40
17092;DHT22;8661;45.700;4.880;2023-03-01T14:20:21;8.40;89.60
17092;DHT22;8661;45.700;4.880;2023-03-01T14:22:50;8.30;89.70
17092;DHT22;8661;45.700;4.880;2023-03-01T14:25:27;8.20;89.30
17092;DHT22;8661;45.700;4.880;2023-03-01T14:27:58;8.10;90.20
17092;DHT22;8661;45.700;4.880;2023-03-01T14:30:31;8.10;90.10
17092;DHT22;8661;45.700;4.880;2023-03-01T14:33:00;8.10;90.00
17092;DHT22;8661;45.700;4.880;2023-03-01T14:35:30;8.00;90.30
17092;DHT22;8661;45.700;4.880;2023-03-01T14:37:57;7.90;90.30
17092;DHT22;8661;45.700;4.880;2023-03-01T14:40:27;7.80;90.70
17092;DHT22;8661;45.700;4.880;2023-03-01T14:42:56;7.80;90.50
17092;DHT22;8661;45.700;4.880;2023-03-01T14:45:27;7.70;90.60
17092;DHT22;8661;45.700;4.880;2023-03-01T14:47:59;7.70;90.60
17092;DHT22;8661;45.700;4.880;2023-03-01T14:50:29;7.60;90.50
17092;DHT22;8661;45.700;4.880;2023-03-01T14:52:58;7.60;90.60
17092;DHT22;8661;45.700;4.880;2023-03-01T14:55:29;7.60;91.20
17092;DHT22;8661;45.700;4.880;2023-03-01T14:57:57;7.60;90.60
17092;DHT22;8661;45.700;4.880;2023-03-01T15:00:27;7.40;90.70
17092;DHT22;8661;45.700;4.880;2023-03-01T15:02:56;7.40;90.90
17092;DHT22;8661;45.700;4.880;2023-03-01T15:05:29;7.50;91.10
17092;DHT22;8661;45.700;4.880;2023-03-01T15:07:57;7.50;90.90
17092;DHT22;8661;45.700;4.880;2023-03-01T15:10:26;7.40;91.20
17092;DHT22;8661;45.700;4.880;2023-03-01T15:12:54;7.50;91.20
17092;DHT22;8661;45.700;4.880;2023-03-01T15:15:35;7.40;91.10
17092;DHT22;8661;45.700;4.880;2023-03-01T15:18:05;7.40;91.20
17092;DHT22;8661;45.700;4.880;2023-03-01T15:20:39;7.40;91.50
17092;DHT22;8661;45.700;4.880;2023-03-01T15:23:06;7.40;91.60
17092;DHT22;8661;45.700;4.880;2023-03-01T15:25:46;7.40;91.40
17092;DHT22;8661;45.700;4.880;2023-03-01T15:28:20;7.40;91.70
17092;DHT22;8661;45.700;4.880;2023-03-01T15:30:53;7.40;91.20
17092;DHT22;8661;45.700;4.880;2023-03-01T15:33:31;7.40;91.20
17092;DHT22;8661;45.700;4.880;2023-03-01T15:35:59;7.40;91.40
17092;DHT22;8661;45.700;4.880;2023-03-01T15:38:32;7.50;92.00
17092;DHT22;8661;45.700;4.880;2023-03-01T15:41:02;7.50;91.60
17092;DHT22;8661;45.700;4.880;2023-03-01T15:43:42;7.60;91.50
17092;DHT22;8661;45.700;4.880;2023-03-01T15:46:20;7.60;91.10
17092;DHT22;8661;45.700;4.880;2023-03-01T15:48:52;7.50;91.30
17092;DHT22;8661;45.700;4.880;2023-03-01T15:51:26;7.40;91.30
17092;DHT22;8661;45.700;4.880;2023-03-01T15:53:54;7.30;91.20
17092;DHT22;8661;45.700;4.880;2023-03-01T15:56:21;7.20;91.30
17092;DHT22;8661;45.700;4.880;2023-03-01T15:58:48;7.20;91.40
17092;DHT22;8661;45.700;4.880;2023-03-01T16:01:17;7.20;92.10
17092;DHT22;8661;45.700;4.880;2023-03-01T16:03:44;7.20;91.60
17092;DHT22;8661;45.700;4.880;2023-03-01T16:06:12;7.20;91.40
17092;DHT22;8661;45.700;4.880;2023-03-01T16:08:39;7.20;91.40
17092;DHT22;8661;45.700;4.880;2023-03-01T16:11:13;7.20;91.60
17092;DHT22;8661;45.700;4.880;2023-03-01T16:13:40;7.20;92.10
17092;DHT22;8661;45.700;4.880;2023-03-01T16:16:09;7.10;91.80
17092;DHT22;8661;45.700;4.880;2023-03-01T16:18:39;7.10;91.90
17092;DHT22;8661;45.700;4.880;2023-03-01T16:21:06;7.00;92.10
17092;DHT22;8661;45.700;4.880;2023-03-01T16:23:33;7.00;92.70
17092;DHT22;8661;45.700;4.880;2023-03-01T16:26:00;7.00;92.30
17092;DHT22;8661;45.700;4.880;2023-03-01T16:28:27;7.00;92.50
17092;DHT22;8661;45.700;4.880;2023-03-01T16:30:54;7.00;93.00